Aérodrome :
LOGIN :

S'inscrire | Disclaimer

   EN    FR    IT 

 










Légende :    VFR   VFR Marginal   IFR   IFR Intensif   IFR Très Intensif
Visi : 
Plafond : 
>= 8 km
>= 3000ft
5 à 8 km
1000 à 3000 ft
1500m à 5 km
500 à 1000 ft
800 à 1500m
200 à 500 ft
< 800m
< 200 ft
Symboles :   Orages  Brouillard  Fortes neiges  Fortes précipitations  Vent > 20 kt
SIGMETs :   Divers  Orages  Givrage  Turbulence  Onde Orograph.  Cendres Volcan.







- Altitude de l'aérodrome : 1649 ft
- Code IATA : HHN


EDFH - Frankfurt-Hahn Rhineland-Palatinate

DERNIER METAR :
  • 172250Z 31007KT CAVOK 17/12 Q1019

METARs EXPIRÉS :
  • 172220Z 31004KT CAVOK 18/12 Q1019
  • 172150Z 32005KT CAVOK 17/12 Q1019
  • 172120Z 33005KT CAVOK 17/13 Q1018
  • 172050Z 36005KT CAVOK 18/13 Q1018
  • 172020Z 35006KT CAVOK 19/13 Q1018

TAF TAF EDFH
Valide du 17 à 18h jusqu'au 18 à 18h UTC


171700Z 1718/1818 34003KT CAVOK
PROB30
TEMPO 1718/1719 27015G25KT TSRA SCT035CB
Pas de NOTAMs connus pour ce terrain.



MET'MAP, la Météo Aéronautique d'un coup d'oeil ! - Copyright ORBIFLY Décembre 2007 - Disclaimer

ORBIFLY MET'MAP TEAM :

Programmation & Développement : Alexandra Zaïnal
Conception & Développement : Baudouin d'Aumeries
Co-Programmation & Développement : Marc-Olivier Méhu
Soutien technique & logistique : Manuel Goepfert

Contact : metmap@orbifly.com




SOURCES & CREDITS :

   NOAA